createdAt,value
2022-09-07T00:02:23.894Z,100.00
2022-09-07T00:04:50.518Z,100.00
2022-09-07T00:07:17.099Z,100.00
2022-09-07T00:09:43.694Z,100.00
2022-09-07T00:12:10.310Z,100.00
2022-09-07T00:14:36.882Z,100.00
2022-09-07T00:17:03.546Z,100.00
2022-09-07T00:19:30.145Z,100.00
2022-09-07T00:21:56.761Z,100.00
2022-09-07T00:24:23.419Z,100.00
2022-09-07T00:26:49.951Z,100.00
2022-09-07T00:29:16.551Z,100.00
2022-09-07T00:31:43.143Z,100.00
2022-09-07T00:34:09.699Z,100.00
2022-09-07T00:36:36.275Z,100.00
2022-09-07T00:39:03.309Z,100.00
2022-09-07T00:41:29.987Z,100.00
2022-09-07T00:43:59.681Z,100.00
2022-09-07T00:46:29.043Z,100.00
2022-09-07T00:49:03.338Z,100.00
2022-09-07T00:51:33.578Z,100.00
2022-09-07T00:54:08.953Z,100.00
2022-09-07T00:56:39.461Z,100.00
2022-09-07T00:59:06.565Z,100.00
2022-09-07T01:01:34.335Z,100.00
2022-09-07T01:04:02.144Z,100.00
2022-09-07T01:06:34.978Z,100.00
2022-09-07T01:09:07.051Z,100.00
2022-09-07T01:11:35.092Z,100.00
2022-09-07T01:14:03.807Z,100.00
2022-09-07T01:16:59.029Z,100.00
2022-09-07T01:20:01.132Z,100.00
2022-09-07T01:22:33.716Z,100.00
2022-09-07T01:25:03.339Z,100.00
2022-09-07T01:28:08.055Z,100.00
2022-09-07T01:30:41.987Z,100.00
2022-09-07T01:33:42.347Z,100.00
2022-09-07T01:36:33.072Z,100.00
2022-09-07T01:39:02.651Z,100.00
2022-09-07T01:41:42.776Z,100.00
2022-09-07T01:44:21.847Z,100.00
2022-09-07T01:46:58.768Z,100.00
2022-09-07T01:49:41.132Z,100.00
2022-09-07T01:52:20.038Z,100.00
2022-09-07T01:55:01.159Z,100.00
2022-09-07T01:57:34.538Z,100.00
2022-09-07T02:00:09.730Z,100.00
2022-09-07T02:02:45.965Z,100.00
2022-09-07T02:05:25.402Z,100.00
2022-09-07T02:08:03.136Z,100.00
2022-09-07T02:10:51.728Z,100.00
2022-09-07T02:13:28.053Z,100.00
2022-09-07T02:16:22.244Z,100.00
2022-09-07T02:18:53.625Z,100.00
2022-09-07T02:21:24.172Z,100.00
2022-09-07T02:23:56.818Z,100.00
2022-09-07T02:26:27.744Z,100.00
2022-09-07T02:28:54.374Z,100.00
2022-09-07T02:31:21.250Z,100.00
2022-09-07T02:33:48.251Z,100.00
2022-09-07T02:36:18.197Z,100.00
2022-09-07T02:38:46.100Z,100.00
2022-09-07T02:41:31.502Z,100.00
2022-09-07T02:43:58.758Z,100.00
2022-09-07T02:47:03.805Z,100.00
2022-09-07T02:49:57.215Z,100.00
2022-09-07T02:52:44.435Z,100.00
2022-09-07T02:55:34.232Z,100.00
2022-09-07T02:58:03.569Z,100.00
2022-09-07T03:00:36.982Z,100.00
2022-09-07T03:03:12.339Z,100.00
2022-09-07T03:05:52.377Z,100.00
2022-09-07T03:08:20.989Z,100.00
2022-09-07T03:10:49.069Z,100.00
2022-09-07T03:13:25.076Z,100.00
2022-09-07T03:15:55.696Z,100.00
2022-09-07T03:18:24.318Z,100.00
2022-09-07T03:20:51.174Z,100.00
2022-09-07T03:23:17.903Z,100.00
2022-09-07T03:25:44.525Z,100.00
2022-09-07T03:28:11.509Z,100.00
2022-09-07T03:30:42.279Z,100.00
2022-09-07T03:33:08.850Z,100.00
2022-09-07T03:35:35.660Z,100.00
2022-09-07T03:38:02.211Z,100.00
2022-09-07T03:40:28.892Z,100.00
2022-09-07T03:42:55.577Z,100.00
2022-09-07T03:45:22.143Z,100.00
2022-09-07T03:47:49.384Z,100.00
2022-09-07T03:50:16.082Z,100.00
2022-09-07T03:52:42.637Z,100.00
2022-09-07T03:55:09.345Z,100.00
2022-09-07T03:57:36.146Z,100.00
2022-09-07T04:00:05.014Z,100.00
2022-09-07T04:02:31.616Z,100.00
2022-09-07T04:04:58.247Z,100.00
2022-09-07T04:07:24.795Z,100.00
2022-09-07T04:09:51.438Z,100.00
2022-09-07T04:12:18.106Z,100.00
2022-09-07T04:14:44.812Z,100.00
2022-09-07T04:17:11.410Z,100.00
2022-09-07T04:19:38.059Z,100.00
2022-09-07T04:22:04.703Z,100.00
2022-09-07T04:24:31.246Z,100.00
2022-09-07T04:26:57.965Z,100.00
2022-09-07T04:29:24.583Z,100.00
2022-09-07T04:31:51.134Z,100.00
2022-09-07T04:34:17.778Z,100.00
2022-09-07T04:36:44.344Z,100.00
2022-09-07T04:39:11.384Z,100.00
2022-09-07T04:41:38.026Z,100.00
2022-09-07T04:44:04.969Z,100.00
2022-09-07T04:46:36.650Z,100.00
2022-09-07T04:49:07.034Z,100.00
2022-09-07T04:51:33.728Z,100.00
2022-09-07T04:54:02.514Z,100.00
2022-09-07T04:56:30.354Z,100.00
2022-09-07T04:58:56.944Z,100.00
2022-09-07T05:01:25.222Z,100.00
2022-09-07T05:03:52.541Z,100.00
2022-09-07T05:06:20.677Z,100.00
2022-09-07T05:08:49.896Z,100.00
2022-09-07T05:11:18.092Z,100.00
2022-09-07T05:13:45.147Z,100.00
2022-09-07T05:16:17.422Z,100.00
2022-09-07T05:18:45.278Z,100.00
2022-09-07T05:21:14.897Z,100.00
2022-09-07T05:23:42.173Z,100.00
2022-09-07T05:26:09.965Z,100.00
2022-09-07T05:28:36.655Z,100.00
2022-09-07T05:36:38.656Z,100.00
2022-09-07T05:39:06.893Z,100.00
2022-09-07T05:41:33.900Z,100.00
2022-09-07T05:46:49.183Z,100.00
2022-09-07T05:49:15.745Z,100.00
2022-09-07T05:51:42.312Z,100.00
2022-09-07T05:54:11.081Z,100.00
2022-09-07T05:56:37.834Z,100.00
2022-09-07T05:59:04.827Z,100.00
2022-09-07T06:01:31.964Z,100.00
2022-09-07T06:03:58.849Z,100.00
2022-09-07T06:06:25.431Z,100.00
2022-09-07T06:08:53.996Z,100.00
2022-09-07T06:11:25.008Z,100.00
2022-09-07T06:13:52.010Z,100.00
2022-09-07T06:16:20.130Z,100.00
2022-09-07T06:18:48.514Z,100.00
2022-09-07T06:21:20.228Z,100.00
2022-09-07T06:23:48.350Z,99.94
2022-09-07T06:26:16.573Z,98.19
2022-09-07T06:28:48.853Z,98.57
2022-09-07T06:31:19.591Z,93.79
2022-09-07T06:33:50.334Z,94.06
2022-09-07T06:36:21.698Z,93.00
2022-09-07T06:38:49.352Z,91.32
2022-09-07T06:44:06.594Z,85.47
2022-09-07T06:49:19.905Z,86.55
2022-09-07T06:51:46.572Z,82.17
2022-09-07T06:56:59.762Z,74.14
2022-09-07T06:59:26.411Z,70.95
2022-09-07T07:01:52.969Z,71.98
2022-09-07T07:04:19.602Z,70.76
2022-09-07T07:06:46.187Z,69.87
2022-09-07T07:09:14.061Z,66.66
2022-09-07T07:11:43.534Z,65.50
2022-09-07T07:14:19.334Z,63.98
2022-09-07T07:16:46.784Z,62.36
2022-09-07T07:19:13.541Z,62.82
2022-09-07T07:22:03.569Z,60.51
2022-09-07T07:24:26.669Z,61.55
2022-09-07T07:26:53.548Z,60.64
2022-09-07T07:29:21.899Z,59.72
2022-09-07T07:31:49.381Z,57.85
2022-09-07T07:34:15.977Z,59.04
2022-09-07T07:36:42.549Z,59.15
2022-09-07T07:41:58.739Z,57.45
2022-09-07T07:44:28.341Z,58.08
2022-09-07T07:46:54.942Z,59.18
2022-09-07T07:49:21.686Z,57.16
2022-09-07T07:54:37.584Z,54.57
2022-09-07T07:57:05.671Z,50.88
2022-09-07T07:59:32.269Z,50.40
2022-09-07T08:02:04.417Z,49.05
2022-09-07T08:04:40.534Z,48.83
2022-09-07T08:07:10.814Z,49.60
2022-09-07T08:09:39.686Z,50.43
2022-09-07T08:12:06.422Z,47.83
2022-09-07T08:14:32.957Z,48.82
2022-09-07T08:16:59.484Z,49.24
2022-09-07T08:19:26.110Z,49.13
2022-09-07T08:21:53.039Z,50.32
2022-09-07T08:24:19.600Z,47.46
2022-09-07T08:26:47.676Z,47.40
2022-09-07T08:29:14.663Z,48.54
2022-09-07T08:31:41.240Z,46.54
2022-09-07T08:34:07.971Z,47.39
2022-09-07T08:36:34.477Z,47.23
2022-09-07T08:39:01.104Z,47.70
2022-09-07T08:41:33.781Z,46.59
2022-09-07T08:44:11.423Z,46.39
2022-09-07T08:46:40.408Z,47.06
2022-09-07T08:49:20.404Z,47.73
2022-09-07T08:52:00.485Z,46.86
2022-09-07T08:54:27.599Z,47.46
2022-09-07T08:59:57.518Z,44.43
2022-09-07T09:02:27.862Z,43.74
2022-09-07T09:08:09.319Z,43.93
2022-09-07T09:10:42.030Z,47.47
2022-09-07T09:13:23.977Z,47.06
2022-09-07T09:16:13.742Z,46.76
2022-09-07T09:18:43.030Z,44.86
2022-09-07T09:21:15.207Z,44.45
2022-09-07T09:23:44.794Z,44.59
2022-09-07T09:26:18.080Z,45.54
2022-09-07T09:28:44.597Z,43.18
2022-09-07T09:31:17.963Z,44.59
2022-09-07T09:33:44.787Z,44.99
2022-09-07T09:36:31.155Z,44.22
2022-09-07T09:38:57.550Z,43.39
2022-09-07T09:41:23.919Z,44.18
2022-09-07T09:43:54.578Z,42.14
2022-09-07T09:46:36.048Z,44.22
2022-09-07T09:49:28.233Z,43.59
2022-09-07T09:54:48.647Z,44.51
2022-09-07T09:57:16.913Z,43.30
2022-09-07T10:00:02.722Z,43.12
2022-09-07T10:05:33.258Z,42.77
2022-09-07T10:07:59.924Z,42.08
2022-09-07T10:10:28.194Z,41.87
2022-09-07T10:12:55.936Z,42.73
2022-09-07T10:15:39.971Z,42.25
2022-09-07T10:18:16.691Z,40.41
2022-09-07T10:20:43.036Z,41.80
2022-09-07T10:23:19.604Z,44.91
2022-09-07T10:25:47.485Z,45.61
2022-09-07T10:28:22.144Z,42.22
2022-09-07T10:30:55.091Z,44.95
2022-09-07T10:33:36.048Z,41.64
2022-09-07T10:36:05.353Z,40.48
2022-09-07T10:38:40.306Z,40.75
2022-09-07T10:41:09.745Z,40.51
2022-09-07T10:43:43.709Z,39.51
2022-09-07T10:49:17.813Z,41.53
2022-09-07T10:51:57.656Z,40.65
2022-09-07T10:55:10.156Z,39.23
2022-09-07T10:57:48.932Z,38.93
2022-09-07T11:00:18.764Z,37.77
2022-09-07T11:03:24.865Z,39.03
2022-09-07T11:06:26.096Z,38.31
2022-09-07T11:09:17.501Z,38.77
2022-09-07T11:12:01.815Z,36.09
2022-09-07T11:14:32.234Z,36.01
2022-09-07T11:17:04.348Z,35.50
2022-09-07T11:19:39.800Z,34.90
2022-09-07T11:22:12.353Z,35.04
2022-09-07T11:27:51.186Z,33.97
2022-09-07T11:30:35.854Z,33.96
2022-09-07T11:33:11.139Z,33.62
2022-09-07T11:35:50.520Z,32.70
2022-09-07T11:38:35.408Z,33.52
2022-09-07T11:41:20.042Z,33.36
2022-09-07T11:44:09.801Z,33.42
2022-09-07T11:46:45.002Z,31.98
2022-09-07T11:49:19.225Z,30.63
2022-09-07T11:52:05.819Z,30.15
2022-09-07T11:54:48.875Z,28.18
2022-09-07T11:57:15.363Z,28.46
2022-09-07T11:59:56.585Z,26.72
2022-09-07T12:02:59.794Z,25.83
2022-09-07T12:05:45.496Z,24.50
2022-09-07T12:08:42.963Z,23.90
2022-09-07T12:11:24.629Z,23.75
2022-09-07T12:14:15.417Z,22.85
2022-09-07T12:16:44.797Z,21.68
2022-09-07T12:19:23.435Z,21.79
2022-09-07T12:21:52.966Z,20.21
2022-09-07T12:24:43.053Z,20.22
2022-09-07T12:27:12.226Z,19.35
2022-09-07T12:29:45.087Z,19.83
2022-09-07T12:34:59.027Z,17.58
2022-09-07T12:37:40.061Z,17.84
2022-09-07T12:40:32.191Z,17.64
2022-09-07T12:43:14.064Z,17.37
2022-09-07T12:45:40.554Z,17.32
2022-09-07T12:48:10.103Z,18.30
2022-09-07T12:50:51.084Z,18.71
2022-09-07T12:53:26.729Z,19.37
2022-09-07T12:56:18.525Z,17.35
2022-09-07T12:59:17.497Z,16.37
2022-09-07T13:02:20.470Z,15.55
2022-09-07T13:04:53.074Z,15.66
2022-09-07T13:07:46.387Z,15.80
2022-09-07T13:10:28.539Z,14.81
2022-09-07T13:13:01.724Z,14.82
2022-09-07T13:15:48.899Z,14.41
2022-09-07T13:18:27.801Z,15.23
2022-09-07T13:21:09.472Z,16.44
2022-09-07T13:23:38.053Z,17.56
2022-09-07T13:26:08.629Z,16.34
2022-09-07T13:28:58.389Z,16.57
2022-09-07T13:31:30.958Z,16.44
2022-09-07T13:33:57.564Z,16.03
2022-09-07T13:36:45.273Z,15.77
2022-09-07T13:39:15.880Z,15.24
2022-09-07T13:41:50.335Z,15.25
2022-09-07T13:44:25.600Z,14.62
2022-09-07T13:46:58.739Z,14.31
2022-09-07T13:49:47.098Z,13.84
2022-09-07T13:52:16.350Z,13.28
2022-09-07T13:55:44.595Z,14.17
2022-09-07T13:58:18.013Z,13.24
2022-09-07T14:00:54.551Z,14.59
2022-09-07T14:03:23.587Z,15.25
2022-09-07T14:06:13.736Z,15.20
2022-09-07T14:08:41.305Z,14.35
2022-09-07T14:11:22.524Z,14.95
2022-09-07T14:14:18.672Z,14.51
2022-09-07T14:17:07.442Z,14.44
2022-09-07T14:19:41.018Z,15.75
2022-09-07T14:22:21.627Z,15.53
2022-09-07T14:24:50.781Z,13.96
2022-09-07T14:27:35.965Z,14.67
2022-09-07T14:30:28.254Z,14.50
2022-09-07T14:33:02.131Z,13.85
2022-09-07T14:35:33.560Z,13.80
2022-09-07T14:41:20.252Z,14.55
2022-09-07T14:43:58.303Z,14.93
2022-09-07T14:46:29.039Z,15.59
2022-09-07T14:48:57.903Z,16.12
2022-09-07T14:51:35.643Z,16.65
2022-09-07T14:54:07.672Z,16.28
2022-09-07T14:56:35.708Z,16.47
2022-09-07T14:59:02.345Z,15.92
2022-09-07T15:01:37.906Z,16.85
2022-09-07T15:04:18.447Z,16.91
2022-09-07T15:07:02.255Z,17.88
2022-09-07T15:09:36.943Z,18.02
2022-09-07T15:12:15.695Z,18.40
2022-09-07T15:14:42.426Z,17.73
2022-09-07T15:17:46.409Z,18.68
2022-09-07T15:20:35.103Z,19.42
2022-09-07T15:23:10.137Z,19.97
2022-09-07T15:25:37.221Z,20.96
2022-09-07T15:28:04.575Z,20.74
2022-09-07T15:30:31.197Z,21.13
2022-09-07T15:32:58.067Z,21.69
2022-09-07T15:35:24.784Z,22.33
2022-09-07T15:38:59.539Z,22.49
2022-09-07T15:41:10.642Z,22.96
2022-09-07T15:43:30.693Z,23.44
2022-09-07T15:45:57.422Z,23.98
2022-09-07T15:48:25.181Z,24.86
2022-09-07T15:51:00.098Z,24.59
2022-09-07T15:56:14.092Z,25.36
2022-09-07T15:58:43.164Z,26.11
2022-09-07T16:03:59.075Z,26.14
2022-09-07T16:06:26.383Z,26.33
2022-09-07T16:08:53.477Z,27.65
2022-09-07T16:11:25.508Z,28.82
2022-09-07T16:13:57.346Z,31.94
2022-09-07T16:17:26.670Z,33.21
2022-09-07T16:19:14.624Z,34.66
2022-09-07T16:21:42.822Z,35.71
2022-09-07T16:24:09.697Z,36.86
2022-09-07T16:26:36.286Z,37.97
2022-09-07T16:29:03.452Z,38.39
2022-09-07T16:31:31.151Z,39.10
2022-09-07T16:33:58.195Z,39.76
2022-09-07T16:36:24.763Z,39.89
2022-09-07T16:39:00.647Z,40.38
2022-09-07T16:41:31.775Z,41.76
2022-09-07T16:43:59.220Z,41.42
2022-09-07T16:46:28.994Z,42.57
2022-09-07T16:48:55.633Z,43.07
2022-09-07T16:51:23.959Z,43.33
2022-09-07T16:53:53.236Z,43.58
2022-09-07T16:56:22.813Z,43.79
2022-09-07T16:58:52.433Z,44.76
2022-09-07T17:01:21.831Z,45.50
2022-09-07T17:03:49.574Z,46.33
2022-09-07T17:06:17.402Z,47.16
2022-09-07T17:08:44.286Z,48.40
2022-09-07T17:11:12.499Z,48.66
2022-09-07T17:13:40.617Z,50.03
2022-09-07T17:16:16.401Z,49.74
2022-09-07T17:21:36.430Z,51.52
2022-09-07T17:24:05.291Z,52.96
2022-09-07T17:26:33.126Z,53.44
2022-09-07T17:29:00.899Z,54.17
2022-09-07T17:34:24.634Z,57.71
2022-09-07T17:36:51.687Z,57.37
2022-09-07T17:39:19.268Z,57.53
2022-09-07T17:41:47.876Z,58.06
2022-09-07T17:44:15.106Z,57.84
2022-09-07T17:46:41.646Z,56.90
2022-09-07T17:49:12.137Z,59.14
2022-09-07T17:51:39.196Z,59.12
2022-09-07T17:54:10.935Z,60.00
2022-09-07T17:56:38.653Z,57.99
2022-09-07T18:01:54.163Z,58.29
2022-09-07T18:04:21.446Z,59.83
2022-09-07T18:06:48.379Z,61.74
2022-09-07T18:09:15.786Z,64.25
2022-09-07T18:11:46.688Z,66.52
2022-09-07T18:14:15.102Z,67.78
2022-09-07T18:16:43.381Z,70.15
2022-09-07T18:19:11.210Z,72.64
2022-09-07T18:21:39.358Z,72.37
2022-09-07T18:24:13.884Z,74.18
2022-09-07T18:26:41.059Z,76.52
2022-09-07T18:29:25.869Z,76.62
2022-09-07T18:31:54.235Z,75.33
2022-09-07T18:34:20.993Z,76.28
2022-09-07T18:36:47.959Z,78.31
2022-09-07T18:39:14.667Z,80.40
2022-09-07T18:41:42.214Z,74.73
2022-09-07T18:45:27.052Z,76.40
2022-09-07T18:46:58.313Z,80.04
2022-09-07T18:49:25.195Z,81.86
2022-09-07T18:54:39.430Z,85.04
2022-09-07T18:57:06.991Z,86.28
2022-09-07T18:59:33.932Z,86.15
2022-09-07T19:02:04.299Z,86.32
2022-09-07T19:07:20.343Z,83.53
2022-09-07T19:09:48.073Z,86.94
2022-09-07T19:12:14.849Z,88.61
2022-09-07T19:14:42.223Z,90.70
2022-09-07T19:17:10.860Z,89.96
2022-09-07T19:19:38.352Z,90.70
2022-09-07T19:22:05.138Z,93.31
2022-09-07T19:24:34.348Z,93.97
2022-09-07T19:27:01.373Z,95.58
2022-09-07T19:29:29.103Z,96.58
2022-09-07T19:32:05.024Z,96.52
2022-09-07T19:34:37.119Z,96.56
2022-09-07T19:37:05.698Z,96.94
2022-09-07T19:39:32.708Z,96.72
2022-09-07T19:41:59.338Z,97.14
2022-09-07T19:44:26.211Z,96.77
2022-09-07T19:46:52.785Z,100.00
2022-09-07T19:49:19.747Z,100.00
2022-09-07T19:51:48.145Z,100.00
2022-09-07T19:54:15.038Z,100.00
2022-09-07T19:56:42.816Z,100.00
2022-09-07T19:59:09.783Z,100.00
2022-09-07T20:01:37.650Z,100.00
2022-09-07T20:04:07.420Z,100.00
2022-09-07T20:06:37.021Z,100.00
2022-09-07T20:09:03.637Z,100.00
2022-09-07T20:11:32.184Z,100.00
2022-09-07T20:13:59.003Z,100.00
2022-09-07T20:16:26.193Z,100.00
2022-09-07T20:18:52.862Z,100.00
2022-09-07T20:21:22.052Z,100.00
2022-09-07T20:23:48.938Z,100.00
2022-09-07T20:26:17.343Z,100.00
2022-09-07T20:28:44.113Z,100.00
2022-09-07T20:31:13.667Z,100.00
2022-09-07T20:33:41.754Z,100.00
2022-09-07T20:36:14.294Z,100.00
2022-09-07T20:38:42.799Z,100.00
2022-09-07T20:41:14.222Z,100.00
2022-09-07T20:43:40.763Z,100.00
2022-09-07T20:46:09.650Z,100.00
2022-09-07T20:48:39.748Z,100.00
2022-09-07T20:51:09.549Z,100.00
2022-09-07T20:53:37.114Z,100.00
2022-09-07T20:56:06.935Z,100.00
2022-09-07T20:58:35.294Z,100.00
2022-09-07T21:01:03.346Z,100.00
2022-09-07T21:03:30.270Z,100.00
2022-09-07T21:06:05.209Z,100.00
2022-09-07T21:08:36.812Z,100.00
2022-09-07T21:11:18.474Z,100.00
2022-09-07T21:13:45.193Z,100.00
2022-09-07T21:16:14.206Z,100.00
2022-09-07T21:18:41.729Z,100.00
2022-09-07T21:21:23.684Z,100.00
2022-09-07T21:23:55.819Z,100.00
2022-09-07T21:26:22.541Z,100.00
2022-09-07T21:28:57.454Z,100.00
2022-09-07T21:31:24.803Z,100.00
2022-09-07T21:33:56.286Z,100.00
2022-09-07T21:36:23.014Z,100.00
2022-09-07T21:38:50.069Z,100.00
2022-09-07T21:41:19.275Z,100.00
2022-09-07T21:43:46.088Z,100.00
2022-09-07T21:46:15.713Z,100.00
2022-09-07T21:48:43.291Z,100.00
2022-09-07T21:51:10.172Z,100.00
2022-09-07T21:53:36.803Z,100.00
2022-09-07T21:56:09.478Z,100.00
2022-09-07T21:58:36.215Z,100.00
2022-09-07T22:01:16.445Z,100.00
2022-09-07T22:03:48.040Z,100.00
2022-09-07T22:06:15.211Z,100.00
2022-09-07T22:08:42.617Z,100.00
2022-09-07T22:11:12.009Z,100.00
2022-09-07T22:13:39.458Z,100.00
2022-09-07T22:16:06.917Z,100.00
2022-09-07T22:18:34.578Z,100.00
2022-09-07T22:21:24.201Z,100.00
2022-09-07T22:23:53.093Z,100.00
2022-09-07T22:26:22.092Z,100.00
2022-09-07T22:28:49.028Z,100.00
2022-09-07T22:31:20.419Z,100.00
2022-09-07T22:33:48.877Z,100.00
2022-09-07T22:36:18.885Z,100.00
2022-09-07T22:38:47.297Z,100.00
2022-09-07T22:41:23.433Z,100.00
2022-09-07T22:43:51.029Z,100.00
2022-09-07T22:46:20.141Z,100.00
2022-09-07T22:48:47.211Z,100.00
2022-09-07T22:51:14.109Z,100.00
2022-09-07T22:53:42.604Z,100.00
2022-09-07T22:56:12.179Z,100.00
2022-09-07T22:58:38.874Z,100.00
2022-09-07T23:01:06.702Z,100.00
2022-09-07T23:03:35.064Z,100.00
2022-09-07T23:06:02.349Z,100.00
2022-09-07T23:08:29.725Z,100.00
2022-09-07T23:11:02.971Z,100.00
2022-09-07T23:13:29.573Z,100.00
2022-09-07T23:15:56.250Z,100.00
2022-09-07T23:18:23.062Z,100.00
2022-09-07T23:20:49.575Z,100.00
2022-09-07T23:23:16.397Z,100.00
2022-09-07T23:25:44.133Z,100.00
2022-09-07T23:28:12.395Z,100.00
2022-09-07T23:30:40.554Z,100.00
2022-09-07T23:33:07.479Z,100.00
2022-09-07T23:35:34.068Z,100.00
2022-09-07T23:38:00.591Z,100.00
2022-09-07T23:40:30.310Z,100.00
2022-09-07T23:42:56.862Z,100.00
2022-09-07T23:45:23.619Z,100.00
2022-09-07T23:47:50.395Z,100.00
2022-09-07T23:50:16.985Z,100.00
2022-09-07T23:52:43.716Z,100.00
2022-09-07T23:55:11.040Z,100.00
2022-09-07T23:57:38.892Z,100.00
